sensor_id;sensor_type;location;lat;lon;timestamp;pressure;altitude;pressure_sealevel;temperature;humidity
71105;BME280;58760;48.716;8.962;2023-04-27T00:01:05;96533.97;;;7.74;71.55
71105;BME280;58760;48.716;8.962;2023-04-27T00:03:33;96531.31;;;7.74;72.33
71105;BME280;58760;48.716;8.962;2023-04-27T00:05:59;96533.44;;;7.71;71.66
71105;BME280;58760;48.716;8.962;2023-04-27T00:08:24;96529.31;;;7.68;70.57
71105;BME280;58760;48.716;8.962;2023-04-27T00:10:50;96519.94;;;7.74;71.50
71105;BME280;58760;48.716;8.962;2023-04-27T00:13:15;96527.06;;;7.73;70.49
71105;BME280;58760;48.716;8.962;2023-04-27T00:15:40;96530.50;;;7.74;70.01
71105;BME280;58760;48.716;8.962;2023-04-27T00:18:06;96526.53;;;7.70;70.88
71105;BME280;58760;48.716;8.962;2023-04-27T00:20:31;96526.84;;;7.67;70.57
71105;BME280;58760;48.716;8.962;2023-04-27T00:22:57;96522.53;;;7.66;72.13
71105;BME280;58760;48.716;8.962;2023-04-27T00:25:23;96525.81;;;7.60;74.15
71105;BME280;58760;48.716;8.962;2023-04-27T00:27:48;96525.06;;;8.01;73.28
71105;BME280;58760;48.716;8.962;2023-04-27T00:30:14;96525.69;;;7.95;75.32
71105;BME280;58760;48.716;8.962;2023-04-27T00:32:40;96527.47;;;7.61;77.51
71105;BME280;58760;48.716;8.962;2023-04-27T00:35:06;96514.81;;;7.47;78.82
71105;BME280;58760;48.716;8.962;2023-04-27T00:37:32;96520.19;;;7.37;78.46
71105;BME280;58760;48.716;8.962;2023-04-27T00:39:57;96509.69;;;7.45;77.84
71105;BME280;58760;48.716;8.962;2023-04-27T00:42:22;96507.94;;;7.54;77.79
71105;BME280;58760;48.716;8.962;2023-04-27T00:44:49;96509.63;;;7.37;78.89
71105;BME280;58760;48.716;8.962;2023-04-27T00:47:14;96497.09;;;7.39;78.79
71105;BME280;58760;48.716;8.962;2023-04-27T00:49:41;96495.25;;;7.31;78.46
71105;BME280;58760;48.716;8.962;2023-04-27T00:52:06;96483.53;;;7.34;78.88
71105;BME280;58760;48.716;8.962;2023-04-27T00:54:32;96493.88;;;7.27;79.86
71105;BME280;58760;48.716;8.962;2023-04-27T00:56:57;96494.81;;;7.18;80.25
71105;BME280;58760;48.716;8.962;2023-04-27T00:59:23;96495.41;;;7.12;80.37
71105;BME280;58760;48.716;8.962;2023-04-27T01:01:49;96496.41;;;7.11;80.36
71105;BME280;58760;48.716;8.962;2023-04-27T01:04:15;96497.38;;;7.10;79.89
71105;BME280;58760;48.716;8.962;2023-04-27T01:06:42;96501.81;;;7.10;80.04
71105;BME280;58760;48.716;8.962;2023-04-27T01:09:07;96507.91;;;7.10;80.39
71105;BME280;58760;48.716;8.962;2023-04-27T01:11:34;96508.44;;;7.14;80.78
71105;BME280;58760;48.716;8.962;2023-04-27T01:14:04;96507.63;;;7.13;80.04
71105;BME280;58760;48.716;8.962;2023-04-27T01:16:31;96516.19;;;7.15;80.13
71105;BME280;58760;48.716;8.962;2023-04-27T01:18:56;96514.56;;;7.14;79.29
71105;BME280;58760;48.716;8.962;2023-04-27T01:21:22;96519.84;;;7.14;79.17
71105;BME280;58760;48.716;8.962;2023-04-27T01:23:47;96511.75;;;7.16;79.05
71105;BME280;58760;48.716;8.962;2023-04-27T01:26:13;96512.59;;;7.16;79.37
71105;BME280;58760;48.716;8.962;2023-04-27T01:28:43;96517.56;;;7.19;79.50
71105;BME280;58760;48.716;8.962;2023-04-27T01:31:11;96512.16;;;7.21;78.33
71105;BME280;58760;48.716;8.962;2023-04-27T01:33:37;96511.97;;;7.22;78.80
71105;BME280;58760;48.716;8.962;2023-04-27T01:36:03;96510.66;;;7.18;78.58
71105;BME280;58760;48.716;8.962;2023-04-27T01:38:29;96511.75;;;7.16;78.46
71105;BME280;58760;48.716;8.962;2023-04-27T01:40:55;96500.66;;;7.12;77.41
71105;BME280;58760;48.716;8.962;2023-04-27T01:43:29;96500.66;;;7.12;76.41
71105;BME280;58760;48.716;8.962;2023-04-27T01:46:05;96500.66;;;7.12;75.81
71105;BME280;58760;48.716;8.962;2023-04-27T01:48:30;96501.38;;;7.14;76.64
71105;BME280;58760;48.716;8.962;2023-04-27T01:50:56;96505.63;;;7.15;76.38
71105;BME280;58760;48.716;8.962;2023-04-27T01:53:21;96505.50;;;7.17;75.65
71105;BME280;58760;48.716;8.962;2023-04-27T01:55:47;96502.34;;;7.13;74.96
71105;BME280;58760;48.716;8.962;2023-04-27T01:58:12;96517.34;;;7.13;74.85
71105;BME280;58760;48.716;8.962;2023-04-27T02:00:38;96512.44;;;7.18;75.12
71105;BME280;58760;48.716;8.962;2023-04-27T02:03:03;96508.00;;;7.18;76.08
71105;BME280;58760;48.716;8.962;2023-04-27T02:05:28;96516.19;;;7.15;75.50
71105;BME280;58760;48.716;8.962;2023-04-27T02:07:54;96514.88;;;7.11;75.03
71105;BME280;58760;48.716;8.962;2023-04-27T02:10:19;96516.38;;;7.14;74.88
71105;BME280;58760;48.716;8.962;2023-04-27T02:12:46;96515.97;;;7.09;74.85
71105;BME280;58760;48.716;8.962;2023-04-27T02:15:12;96517.81;;;7.08;74.90
71105;BME280;58760;48.716;8.962;2023-04-27T02:17:38;96523.22;;;7.07;74.68
71105;BME280;58760;48.716;8.962;2023-04-27T02:20:05;96521.84;;;7.03;74.23
71105;BME280;58760;48.716;8.962;2023-04-27T02:22:34;96524.66;;;7.01;74.69
71105;BME280;58760;48.716;8.962;2023-04-27T02:24:59;96529.03;;;7.10;74.94
71105;BME280;58760;48.716;8.962;2023-04-27T02:27:25;96521.19;;;7.18;75.36
71105;BME280;58760;48.716;8.962;2023-04-27T02:29:50;96527.44;;;7.17;75.86
71105;BME280;58760;48.716;8.962;2023-04-27T02:32:16;96523.09;;;7.08;76.45
71105;BME280;58760;48.716;8.962;2023-04-27T02:34:41;96528.66;;;7.05;77.55
71105;BME280;58760;48.716;8.962;2023-04-27T02:37:07;96531.59;;;7.02;78.86
71105;BME280;58760;48.716;8.962;2023-04-27T02:39:32;96525.28;;;6.95;80.92
71105;BME280;58760;48.716;8.962;2023-04-27T02:41:57;96528.34;;;6.91;81.33
71105;BME280;58760;48.716;8.962;2023-04-27T02:44:23;96527.81;;;6.87;79.48
71105;BME280;58760;48.716;8.962;2023-04-27T02:46:49;96530.84;;;6.92;79.08
71105;BME280;58760;48.716;8.962;2023-04-27T02:49:15;96521.63;;;6.96;79.36
71105;BME280;58760;48.716;8.962;2023-04-27T02:51:40;96529.41;;;6.98;78.89
71105;BME280;58760;48.716;8.962;2023-04-27T02:54:06;96531.22;;;6.97;80.03
71105;BME280;58760;48.716;8.962;2023-04-27T02:56:31;96535.53;;;6.98;78.81
71105;BME280;58760;48.716;8.962;2023-04-27T02:58:56;96536.19;;;7.00;78.68
71105;BME280;58760;48.716;8.962;2023-04-27T03:01:22;96527.97;;;7.03;78.54
71105;BME280;58760;48.716;8.962;2023-04-27T03:03:47;96533.56;;;7.00;80.17
71105;BME280;58760;48.716;8.962;2023-04-27T03:06:13;96533.47;;;7.10;79.73
71105;BME280;58760;48.716;8.962;2023-04-27T03:08:38;96536.59;;;7.05;78.59
71105;BME280;58760;48.716;8.962;2023-04-27T03:11:04;96530.78;;;7.02;78.60
71105;BME280;58760;48.716;8.962;2023-04-27T03:13:30;96526.91;;;6.96;79.69
71105;BME280;58760;48.716;8.962;2023-04-27T03:15:55;96528.88;;;6.94;79.35
71105;BME280;58760;48.716;8.962;2023-04-27T03:18:21;96529.84;;;6.93;80.65
71105;BME280;58760;48.716;8.962;2023-04-27T03:20:46;96533.50;;;6.92;80.39
71105;BME280;58760;48.716;8.962;2023-04-27T03:23:11;96536.66;;;6.96;80.03
71105;BME280;58760;48.716;8.962;2023-04-27T03:25:37;96539.78;;;6.99;79.65
71105;BME280;58760;48.716;8.962;2023-04-27T03:28:02;96532.19;;;6.96;80.22
71105;BME280;58760;48.716;8.962;2023-04-27T03:30:28;96539.56;;;6.93;81.00
71105;BME280;58760;48.716;8.962;2023-04-27T03:32:53;96533.78;;;6.89;81.12
71105;BME280;58760;48.716;8.962;2023-04-27T03:35:19;96537.41;;;6.88;81.37
71105;BME280;58760;48.716;8.962;2023-04-27T03:37:44;96534.06;;;6.86;81.48
71105;BME280;58760;48.716;8.962;2023-04-27T03:40:11;96530.44;;;6.87;81.89
71105;BME280;58760;48.716;8.962;2023-04-27T03:42:36;96531.28;;;6.88;81.37
71105;BME280;58760;48.716;8.962;2023-04-27T03:45:02;96542.06;;;6.94;81.58
71105;BME280;58760;48.716;8.962;2023-04-27T03:47:28;96533.19;;;6.95;80.81
71105;BME280;58760;48.716;8.962;2023-04-27T03:49:53;96537.47;;;6.96;79.88
71105;BME280;58760;48.716;8.962;2023-04-27T03:52:18;96544.41;;;6.97;81.07
71105;BME280;58760;48.716;8.962;2023-04-27T03:54:44;96542.72;;;6.96;80.59
71105;BME280;58760;48.716;8.962;2023-04-27T03:57:09;96541.63;;;6.99;81.07
71105;BME280;58760;48.716;8.962;2023-04-27T03:59:35;96537.16;;;6.99;80.88
71105;BME280;58760;48.716;8.962;2023-04-27T04:02:00;96533.56;;;7.00;81.50
71105;BME280;58760;48.716;8.962;2023-04-27T04:04:26;96534.53;;;6.99;81.14
71105;BME280;58760;48.716;8.962;2023-04-27T04:06:51;96538.16;;;6.98;80.56
71105;BME280;58760;48.716;8.962;2023-04-27T04:09:16;96542.72;;;6.96;79.83
71105;BME280;58760;48.716;8.962;2023-04-27T04:11:42;96537.78;;;7.11;80.27
71105;BME280;58760;48.716;8.962;2023-04-27T04:14:07;96546.59;;;7.19;78.87
71105;BME280;58760;48.716;8.962;2023-04-27T04:16:33;96534.59;;;7.07;78.55
71105;BME280;58760;48.716;8.962;2023-04-27T04:18:58;96539.13;;;6.97;79.28
71105;BME280;58760;48.716;8.962;2023-04-27T04:21:23;96545.97;;;6.90;80.77
71105;BME280;58760;48.716;8.962;2023-04-27T04:23:49;96542.59;;;6.98;81.71
71105;BME280;58760;48.716;8.962;2023-04-27T04:26:14;96544.56;;;7.13;82.31
71105;BME280;58760;48.716;8.962;2023-04-27T04:28:40;96545.69;;;7.11;82.87
71105;BME280;58760;48.716;8.962;2023-04-27T04:31:06;96549.97;;;7.29;81.21
71105;BME280;58760;48.716;8.962;2023-04-27T04:33:33;96563.19;;;7.12;82.27
71105;BME280;58760;48.716;8.962;2023-04-27T04:36:02;96555.63;;;6.99;83.61
71105;BME280;58760;48.716;8.962;2023-04-27T04:38:28;96557.00;;;7.21;83.31
71105;BME280;58760;48.716;8.962;2023-04-27T04:40:53;96555.63;;;6.99;84.03
71105;BME280;58760;48.716;8.962;2023-04-27T04:43:18;96556.53;;;6.90;84.49
71105;BME280;58760;48.716;8.962;2023-04-27T04:45:44;96560.00;;;6.91;84.79
71105;BME280;58760;48.716;8.962;2023-04-27T04:48:13;96564.44;;;6.90;84.45
71105;BME280;58760;48.716;8.962;2023-04-27T04:50:38;96560.31;;;6.88;84.09
71105;BME280;58760;48.716;8.962;2023-04-27T04:53:04;96559.41;;;6.97;83.62
71105;BME280;58760;48.716;8.962;2023-04-27T04:55:29;96559.09;;;7.00;82.80
71105;BME280;58760;48.716;8.962;2023-04-27T04:57:54;96556.84;;;7.22;82.06
71105;BME280;58760;48.716;8.962;2023-04-27T05:00:20;96560.69;;;7.10;82.43
71105;BME280;58760;48.716;8.962;2023-04-27T05:02:46;96554.56;;;7.10;82.25
71105;BME280;58760;48.716;8.962;2023-04-27T05:05:11;96556.78;;;7.14;81.87
71105;BME280;58760;48.716;8.962;2023-04-27T05:07:37;96556.16;;;7.20;81.57
71105;BME280;58760;48.716;8.962;2023-04-27T05:10:02;96557.09;;;7.11;82.76
71105;BME280;58760;48.716;8.962;2023-04-27T05:12:28;96556.78;;;7.14;81.48
71105;BME280;58760;48.716;8.962;2023-04-27T05:14:53;96551.56;;;7.22;81.56
71105;BME280;58760;48.716;8.962;2023-04-27T05:17:18;96557.13;;;7.19;81.84
71105;BME280;58760;48.716;8.962;2023-04-27T05:19:44;96561.34;;;7.12;82.55
71105;BME280;58760;48.716;8.962;2023-04-27T05:22:09;96563.47;;;7.09;81.83
71105;BME280;58760;48.716;8.962;2023-04-27T05:24:35;96561.13;;;7.23;80.95
71105;BME280;58760;48.716;8.962;2023-04-27T05:27:00;96557.91;;;7.12;81.40
71105;BME280;58760;48.716;8.962;2023-04-27T05:29:26;96572.31;;;7.17;82.59
71105;BME280;58760;48.716;8.962;2023-04-27T05:31:51;96575.53;;;7.29;81.50
71105;BME280;58760;48.716;8.962;2023-04-27T05:34:18;96571.63;;;7.51;80.29
71105;BME280;58760;48.716;8.962;2023-04-27T05:36:43;96578.47;;;7.44;79.27
71105;BME280;58760;48.716;8.962;2023-04-27T05:39:11;96575.22;;;7.32;79.82
71105;BME280;58760;48.716;8.962;2023-04-27T05:41:36;96588.50;;;7.40;80.49
71105;BME280;58760;48.716;8.962;2023-04-27T05:44:02;96579.44;;;7.43;79.84
71105;BME280;58760;48.716;8.962;2023-04-27T05:46:27;96577.25;;;7.56;79.60
71105;BME280;58760;48.716;8.962;2023-04-27T05:48:53;96578.63;;;7.60;78.18
71105;BME280;58760;48.716;8.962;2023-04-27T05:51:18;96580.00;;;7.72;78.13
71105;BME280;58760;48.716;8.962;2023-04-27T05:53:43;96571.34;;;8.05;76.09
71105;BME280;58760;48.716;8.962;2023-04-27T05:56:09;96585.91;;;8.09;75.25
71105;BME280;58760;48.716;8.962;2023-04-27T05:58:35;96585.09;;;7.91;75.97
71105;BME280;58760;48.716;8.962;2023-04-27T06:01:01;96585.91;;;8.09;74.76
71105;BME280;58760;48.716;8.962;2023-04-27T06:03:28;96587.28;;;8.47;73.13
71105;BME280;58760;48.716;8.962;2023-04-27T06:05:55;96590.88;;;8.12;75.02
71105;BME280;58760;48.716;8.962;2023-04-27T06:08:21;96595.63;;;8.09;75.10
71105;BME280;58760;48.716;8.962;2023-04-27T06:10:46;96600.75;;;8.10;75.86
71105;BME280;58760;48.716;8.962;2023-04-27T06:13:11;96599.31;;;8.16;75.35
71105;BME280;58760;48.716;8.962;2023-04-27T06:15:37;96600.56;;;8.29;74.95
71105;BME280;58760;48.716;8.962;2023-04-27T06:18:02;96600.75;;;8.36;75.05
71105;BME280;58760;48.716;8.962;2023-04-27T06:20:28;96598.59;;;8.65;73.04
71105;BME280;58760;48.716;8.962;2023-04-27T06:22:53;96604.63;;;8.91;72.14
71105;BME280;58760;48.716;8.962;2023-04-27T06:25:18;96606.94;;;8.86;72.15
71105;BME280;58760;48.716;8.962;2023-04-27T06:27:44;96604.63;;;8.91;71.45
71105;BME280;58760;48.716;8.962;2023-04-27T06:30:10;96601.84;;;8.93;71.16
71105;BME280;58760;48.716;8.962;2023-04-27T06:32:36;96610.44;;;8.95;70.70
71105;BME280;58760;48.716;8.962;2023-04-27T06:35:01;96615.16;;;9.25;70.11
71105;BME280;58760;48.716;8.962;2023-04-27T06:37:27;96612.19;;;9.36;69.04
71105;BME280;58760;48.716;8.962;2023-04-27T06:39:52;96613.69;;;9.39;67.28
71105;BME280;58760;48.716;8.962;2023-04-27T06:42:17;96612.03;;;9.38;68.04
71105;BME280;58760;48.716;8.962;2023-04-27T06:44:43;96604.94;;;9.55;68.12
71105;BME280;58760;48.716;8.962;2023-04-27T06:47:08;96610.06;;;9.64;66.11
71105;BME280;58760;48.716;8.962;2023-04-27T06:49:33;96610.56;;;9.60;67.06
71105;BME280;58760;48.716;8.962;2023-04-27T06:52:01;96609.25;;;9.64;67.09
71105;BME280;58760;48.716;8.962;2023-04-27T06:54:26;96610.41;;;9.93;66.43
71105;BME280;58760;48.716;8.962;2023-04-27T06:56:52;96609.56;;;9.77;66.06
71105;BME280;58760;48.716;8.962;2023-04-27T06:59:19;96613.88;;;9.94;65.85
71105;BME280;58760;48.716;8.962;2023-04-27T07:01:44;96605.91;;;10.02;64.59
71105;BME280;58760;48.716;8.962;2023-04-27T07:04:10;96602.09;;;10.13;64.78
71105;BME280;58760;48.716;8.962;2023-04-27T07:06:35;96612.38;;;10.24;64.86
71105;BME280;58760;48.716;8.962;2023-04-27T07:09:02;96613.19;;;10.24;64.05
71105;BME280;58760;48.716;8.962;2023-04-27T07:11:29;96607.88;;;10.32;63.87
71105;BME280;58760;48.716;8.962;2023-04-27T07:13:55;96607.25;;;10.30;64.75
71105;BME280;58760;48.716;8.962;2023-04-27T07:16:20;96613.34;;;10.39;64.00
71105;BME280;58760;48.716;8.962;2023-04-27T07:18:46;96613.00;;;10.50;62.91
71105;BME280;58760;48.716;8.962;2023-04-27T07:21:11;96609.81;;;10.93;61.35
71105;BME280;58760;48.716;8.962;2023-04-27T07:23:40;96612.25;;;11.11;59.69
71105;BME280;58760;48.716;8.962;2023-04-27T07:26:07;96605.22;;;11.18;56.22
71105;BME280;58760;48.716;8.962;2023-04-27T07:28:32;96604.66;;;11.00;58.19
71105;BME280;58760;48.716;8.962;2023-04-27T07:30:59;96607.31;;;11.00;59.22
71105;BME280;58760;48.716;8.962;2023-04-27T07:33:26;96610.09;;;11.07;58.28
71105;BME280;58760;48.716;8.962;2023-04-27T07:35:52;96605.25;;;11.10;58.93
71105;BME280;58760;48.716;8.962;2023-04-27T07:38:18;96606.44;;;11.08;58.34
71105;BME280;58760;48.716;8.962;2023-04-27T07:40:44;96609.59;;;11.11;59.54
71105;BME280;58760;48.716;8.962;2023-04-27T07:43:10;96601.69;;;11.26;58.91
71105;BME280;58760;48.716;8.962;2023-04-27T07:45:36;96607.13;;;11.32;58.36
71105;BME280;58760;48.716;8.962;2023-04-27T07:48:03;96609.38;;;11.21;58.29
71105;BME280;58760;48.716;8.962;2023-04-27T07:50:29;96607.59;;;11.36;57.84
71105;BME280;58760;48.716;8.962;2023-04-27T07:52:56;96602.84;;;11.31;57.71
71105;BME280;58760;48.716;8.962;2023-04-27T07:55:22;96600.31;;;11.38;58.96
71105;BME280;58760;48.716;8.962;2023-04-27T07:57:55;96593.44;;;11.43;58.94
71105;BME280;58760;48.716;8.962;2023-04-27T08:00:21;96598.31;;;11.85;58.31
71105;BME280;58760;48.716;8.962;2023-04-27T08:02:48;96591.94;;;11.72;58.06
71105;BME280;58760;48.716;8.962;2023-04-27T08:05:13;96597.22;;;11.94;57.69
71105;BME280;58760;48.716;8.962;2023-04-27T08:07:39;96593.38;;;11.97;57.73
71105;BME280;58760;48.716;8.962;2023-04-27T08:10:06;96589.66;;;12.21;57.79
71105;BME280;58760;48.716;8.962;2023-04-27T08:12:32;96591.63;;;12.41;55.61
71105;BME280;58760;48.716;8.962;2023-04-27T08:14:57;96598.50;;;12.50;55.99
71105;BME280;58760;48.716;8.962;2023-04-27T08:17:23;96591.53;;;12.49;52.62
71105;BME280;58760;48.716;8.962;2023-04-27T08:19:48;96590.22;;;12.45;51.18
71105;BME280;58760;48.716;8.962;2023-04-27T08:22:13;96587.50;;;12.53;52.03
71105;BME280;58760;48.716;8.962;2023-04-27T08:24:39;96579.31;;;12.70;51.15
71105;BME280;58760;48.716;8.962;2023-04-27T08:27:05;96586.13;;;12.57;51.84
71105;BME280;58760;48.716;8.962;2023-04-27T08:29:31;96587.13;;;12.56;49.47
71105;BME280;58760;48.716;8.962;2023-04-27T08:31:58;96576.19;;;12.66;49.90
71105;BME280;58760;48.716;8.962;2023-04-27T08:34:24;96569.66;;;12.69;51.50
71105;BME280;58760;48.716;8.962;2023-04-27T08:36:49;96571.72;;;12.67;49.18
71105;BME280;58760;48.716;8.962;2023-04-27T08:39:15;96564.47;;;12.61;50.64
71105;BME280;58760;48.716;8.962;2023-04-27T08:41:42;96568.28;;;12.87;51.52
71105;BME280;58760;48.716;8.962;2023-04-27T08:44:08;96568.16;;;12.95;48.74
71105;BME280;58760;48.716;8.962;2023-04-27T08:46:36;96568.81;;;12.97;48.41
71105;BME280;58760;48.716;8.962;2023-04-27T08:49:01;96566.03;;;13.05;49.10
71105;BME280;58760;48.716;8.962;2023-04-27T08:51:27;96565.84;;;13.43;49.58
71105;BME280;58760;48.716;8.962;2023-04-27T08:53:55;96565.78;;;13.36;47.11
71105;BME280;58760;48.716;8.962;2023-04-27T08:56:23;96562.84;;;13.46;47.34
71105;BME280;58760;48.716;8.962;2023-04-27T08:58:52;96558.63;;;13.79;45.71
71105;BME280;58760;48.716;8.962;2023-04-27T09:01:18;96563.84;;;13.87;45.95
71105;BME280;58760;48.716;8.962;2023-04-27T09:03:44;96557.47;;;13.88;46.34
71105;BME280;58760;48.716;8.962;2023-04-27T09:06:14;96557.06;;;14.12;44.78
71105;BME280;58760;48.716;8.962;2023-04-27T09:08:40;96557.25;;;14.11;44.42
71105;BME280;58760;48.716;8.962;2023-04-27T09:11:05;96568.56;;;14.13;44.20
71105;BME280;58760;48.716;8.962;2023-04-27T09:13:36;96561.28;;;14.00;44.46
71105;BME280;58760;48.716;8.962;2023-04-27T09:16:02;96560.38;;;14.21;44.02
71105;BME280;58760;48.716;8.962;2023-04-27T09:18:27;96570.94;;;14.29;45.00
71105;BME280;58760;48.716;8.962;2023-04-27T09:20:53;96566.59;;;14.28;44.16
71105;BME280;58760;48.716;8.962;2023-04-27T09:23:32;96564.28;;;14.19;43.88
71105;BME280;58760;48.716;8.962;2023-04-27T09:26:00;96567.78;;;14.19;43.13
71105;BME280;58760;48.716;8.962;2023-04-27T09:28:26;96572.09;;;14.20;44.52
71105;BME280;58760;48.716;8.962;2023-04-27T09:30:52;96566.47;;;14.08;43.82
71105;BME280;58760;48.716;8.962;2023-04-27T09:33:26;96557.72;;;14.21;46.19
71105;BME280;58760;48.716;8.962;2023-04-27T09:35:52;96557.09;;;14.40;44.07
71105;BME280;58760;48.716;8.962;2023-04-27T09:38:18;96563.69;;;14.51;43.75
71105;BME280;58760;48.716;8.962;2023-04-27T09:40:44;96567.78;;;14.47;43.06
71105;BME280;58760;48.716;8.962;2023-04-27T09:43:10;96565.06;;;14.75;44.27
71105;BME280;58760;48.716;8.962;2023-04-27T09:45:36;96562.69;;;14.93;42.63
71105;BME280;58760;48.716;8.962;2023-04-27T09:48:03;96561.25;;;14.97;41.76
71105;BME280;58760;48.716;8.962;2023-04-27T09:50:29;96552.78;;;14.87;42.37
71105;BME280;58760;48.716;8.962;2023-04-27T09:52:55;96557.91;;;14.82;43.31
71105;BME280;58760;48.716;8.962;2023-04-27T09:55:28;96561.38;;;14.76;44.08
71105;BME280;58760;48.716;8.962;2023-04-27T10:03:33;96552.03;;;14.99;42.00
71105;BME280;58760;48.716;8.962;2023-04-27T10:07:06;96554.78;;;15.26;44.09
71105;BME280;58760;48.716;8.962;2023-04-27T10:09:02;96556.88;;;15.30;41.04
71105;BME280;58760;48.716;8.962;2023-04-27T10:11:41;96555.59;;;15.19;42.05
71105;BME280;58760;48.716;8.962;2023-04-27T10:14:09;96554.22;;;15.37;41.30
71105;BME280;58760;48.716;8.962;2023-04-27T10:16:46;96559.63;;;15.50;41.16
71105;BME280;58760;48.716;8.962;2023-04-27T10:19:12;96555.31;;;15.68;40.23
71105;BME280;58760;48.716;8.962;2023-04-27T10:21:50;96548.34;;;15.81;40.93
71105;BME280;58760;48.716;8.962;2023-04-27T10:24:15;96542.16;;;16.00;40.21
71105;BME280;58760;48.716;8.962;2023-04-27T10:26:45;96547.50;;;16.19;44.71
71105;BME280;58760;48.716;8.962;2023-04-27T10:29:11;96549.13;;;16.40;40.08
71105;BME280;58760;48.716;8.962;2023-04-27T10:31:44;96550.59;;;16.10;39.59
71105;BME280;58760;48.716;8.962;2023-04-27T10:34:16;96551.25;;;16.12;40.14
71105;BME280;58760;48.716;8.962;2023-04-27T10:36:42;96548.34;;;16.20;41.90
71105;BME280;58760;48.716;8.962;2023-04-27T10:41:48;96538.25;;;16.55;40.68
71105;BME280;58760;48.716;8.962;2023-04-27T10:44:34;96546.41;;;16.80;40.52
71105;BME280;58760;48.716;8.962;2023-04-27T10:47:01;96536.63;;;16.98;40.67
71105;BME280;58760;48.716;8.962;2023-04-27T10:49:36;96531.06;;;17.00;39.29
71105;BME280;58760;48.716;8.962;2023-04-27T10:52:02;96533.34;;;16.96;39.54
71105;BME280;58760;48.716;8.962;2023-04-27T10:54:29;96530.75;;;16.70;39.84
71105;BME280;58760;48.716;8.962;2023-04-27T10:57:05;96536.09;;;16.77;39.32
71105;BME280;58760;48.716;8.962;2023-04-27T10:59:32;96530.66;;;17.03;39.37
71105;BME280;58760;48.716;8.962;2023-04-27T11:01:57;96536.84;;;17.03;37.90
71105;BME280;58760;48.716;8.962;2023-04-27T11:04:23;96536.47;;;16.87;39.00
71105;BME280;58760;48.716;8.962;2023-04-27T11:06:48;96534.34;;;17.02;39.31
71105;BME280;58760;48.716;8.962;2023-04-27T11:09:25;96531.38;;;17.23;38.10
71105;BME280;58760;48.716;8.962;2023-04-27T11:11:51;96531.38;;;17.23;38.96
71105;BME280;58760;48.716;8.962;2023-04-27T11:14:19;96526.34;;;17.33;38.93
71105;BME280;58760;48.716;8.962;2023-04-27T11:16:48;96527.41;;;17.32;38.75
71105;BME280;58760;48.716;8.962;2023-04-27T11:19:14;96521.41;;;17.30;38.43
71105;BME280;58760;48.716;8.962;2023-04-27T11:21:40;96527.19;;;17.71;39.64
71105;BME280;58760;48.716;8.962;2023-04-27T11:24:06;96523.69;;;18.20;39.13
71105;BME280;58760;48.716;8.962;2023-04-27T11:26:32;96512.16;;;18.38;37.41
71105;BME280;58760;48.716;8.962;2023-04-27T11:29:01;96516.91;;;17.93;38.08
71105;BME280;58760;48.716;8.962;2023-04-27T11:34:18;96523.78;;;18.75;38.24
71105;BME280;58760;48.716;8.962;2023-04-27T11:36:44;96522.34;;;18.54;36.60
71105;BME280;58760;48.716;8.962;2023-04-27T11:39:16;96521.00;;;19.00;36.42
71105;BME280;58760;48.716;8.962;2023-04-27T11:41:43;96522.72;;;18.94;35.49
71105;BME280;58760;48.716;8.962;2023-04-27T11:44:11;96531.91;;;19.05;35.67
71105;BME280;58760;48.716;8.962;2023-04-27T11:46:37;96519.53;;;19.33;35.99
71105;BME280;58760;48.716;8.962;2023-04-27T11:49:06;96519.00;;;19.84;34.18
71105;BME280;58760;48.716;8.962;2023-04-27T11:51:33;96520.41;;;20.40;36.68
71105;BME280;58760;48.716;8.962;2023-04-27T11:54:02;96509.88;;;21.13;35.89
71105;BME280;58760;48.716;8.962;2023-04-27T11:56:39;96503.44;;;21.03;34.89
71105;BME280;58760;48.716;8.962;2023-04-27T11:59:16;96495.78;;;21.39;33.22
71105;BME280;58760;48.716;8.962;2023-04-27T12:01:42;96497.94;;;21.82;33.12
71105;BME280;58760;48.716;8.962;2023-04-27T12:04:07;96501.28;;;22.01;32.76
71105;BME280;58760;48.716;8.962;2023-04-27T12:06:32;96503.09;;;20.99;33.79
71105;BME280;58760;48.716;8.962;2023-04-27T12:08:58;96493.72;;;21.58;33.27
71105;BME280;58760;48.716;8.962;2023-04-27T12:11:25;96487.28;;;22.59;31.88
71105;BME280;58760;48.716;8.962;2023-04-27T12:13:52;96490.19;;;23.61;29.00
71105;BME280;58760;48.716;8.962;2023-04-27T12:16:17;96477.50;;;23.40;29.33
71105;BME280;58760;48.716;8.962;2023-04-27T12:18:45;96484.22;;;22.17;31.13
71105;BME280;58760;48.716;8.962;2023-04-27T12:21:11;96487.00;;;21.89;31.25
71105;BME280;58760;48.716;8.962;2023-04-27T12:23:37;96492.63;;;21.43;31.75
71105;BME280;58760;48.716;8.962;2023-04-27T12:26:02;96486.97;;;20.64;34.36
71105;BME280;58760;48.716;8.962;2023-04-27T12:28:28;96494.00;;;20.65;34.17
71105;BME280;58760;48.716;8.962;2023-04-27T12:30:53;96492.88;;;21.13;32.99
71105;BME280;58760;48.716;8.962;2023-04-27T12:33:19;96485.81;;;21.40;32.18
71105;BME280;58760;48.716;8.962;2023-04-27T12:35:44;96492.97;;;21.18;31.93
71105;BME280;58760;48.716;8.962;2023-04-27T12:38:12;96490.47;;;20.65;33.62
71105;BME280;58760;48.716;8.962;2023-04-27T12:40:38;96498.59;;;20.42;32.45
71105;BME280;58760;48.716;8.962;2023-04-27T12:43:03;96496.63;;;19.72;35.52
71105;BME280;58760;48.716;8.962;2023-04-27T12:45:28;96496.94;;;19.64;34.40
71105;BME280;58760;48.716;8.962;2023-04-27T12:47:54;96492.47;;;19.28;36.55
71105;BME280;58760;48.716;8.962;2023-04-27T12:50:19;96488.59;;;19.43;36.09
71105;BME280;58760;48.716;8.962;2023-04-27T12:52:46;96492.59;;;19.52;35.33
71105;BME280;58760;48.716;8.962;2023-04-27T12:55:12;96490.19;;;19.73;34.38
71105;BME280;58760;48.716;8.962;2023-04-27T12:57:37;96483.13;;;19.61;35.24
71105;BME280;58760;48.716;8.962;2023-04-27T13:00:03;96487.25;;;19.75;34.70
71105;BME280;58760;48.716;8.962;2023-04-27T13:02:30;96484.97;;;19.49;35.69
71105;BME280;58760;48.716;8.962;2023-04-27T13:04:55;96484.16;;;19.48;36.54
71105;BME280;58760;48.716;8.962;2023-04-27T13:07:21;96490.59;;;19.29;35.97
71105;BME280;58760;48.716;8.962;2023-04-27T13:09:46;96481.78;;;19.40;35.62
71105;BME280;58760;48.716;8.962;2023-04-27T13:12:11;96477.16;;;19.70;37.42